Time;durP1;ratioP1;P1;durP2;ratioP2;P2;SDS_P1;SDS_P2;PMS_P1;PMS_P2;Temp;Humidity;BMP_temperature;BMP_pressure;BME280_temperature;BME280_humidity;BME280_pressure;Samples;Min_cycle;Max_cycle;Signal;HPM_P1;HPM_P2
2021/04/14 00:01:34;;;;;;;;;;;;;;;31.01;21.57;100516.97;5097425;28;1950;-40
2021/04/14 00:04:00;;;;;;;;;;;;;;;30.81;21.80;100517.06;5096732;28;815;-33
2021/04/14 00:06:25;;;;;;;;;;;;;;;30.91;21.74;100513.91;5098094;28;929;-35
2021/04/14 00:08:51;;;;;;;;;;;;;;;31.17;21.67;100514.81;5097548;28;724;-33
2021/04/14 00:11:17;;;;;;;;;;;;;;;31.03;21.70;100514.88;5097687;28;740;-35
2021/04/14 00:13:43;;;;;;;;;;;;;;;30.85;21.85;100510.16;5094498;28;962;-35
2021/04/14 00:16:13;;;;;;;;;;;;;;;30.91;21.83;100519.31;5076592;28;1079;-37
2021/04/14 00:18:38;;;;;;;;;;;;;;;31.27;21.48;100515.19;5077592;28;751;-35
2021/04/14 00:21:04;;;;;;;;;;;;;;;31.18;21.55;100515.66;5076716;28;1909;-37
2021/04/14 00:23:29;;;;;;;;;;;;;;;30.96;21.94;100516.81;5076979;28;730;-35
2021/04/14 00:25:55;;;;;;;;;;;;;;;30.94;21.79;100504.47;5077177;28;851;-38
2021/04/14 00:28:22;;;;;;;;;;;;;;;31.26;21.61;100499.91;5076704;28;791;-36
2021/04/14 00:30:48;;;;;;;;;;;;;;;31.12;21.77;100491.03;5076479;28;966;-36
2021/04/14 00:33:13;;;;;;;;;;;;;;;30.96;21.94;100486.09;5077017;28;827;-35
2021/04/14 00:35:39;;;;;;;;;;;;;;;30.92;22.07;100491.94;5076710;28;783;-34
2021/04/14 00:38:04;;;;;;;;;;;;;;;31.23;21.54;100492.19;5077016;28;1159;-37
2021/04/14 00:40:31;;;;;;;;;;;;;;;31.02;21.70;100490.66;5097206;28;1958;-35
2021/04/14 00:42:56;;;;;;;;;;;;;;;30.96;21.96;100486.09;5096542;28;824;-34
2021/04/14 00:45:22;;;;;;;;;;;;;;;31.03;21.90;100490.44;5081809;28;1325;-35
2021/04/14 00:47:47;;;;;;;;;;;;;;;31.24;21.77;100488.44;5096995;28;772;-35
2021/04/14 00:50:13;;;;;;;;;;;;;;;31.23;21.66;100489.47;5096265;28;815;-35
2021/04/14 00:52:38;;;;;;;;;;;;;;;31.00;22.03;100480.00;5096608;28;764;-35
2021/04/14 00:55:05;;;;;;;;;;;;;;;31.03;22.00;100485.00;5096785;28;751;-34
2021/04/14 00:57:30;;;;;;;;;;;;;;;31.22;21.94;100476.97;5077902;28;1123;-34
2021/04/14 00:59:56;;;;;;;;;;;;;;;31.07;21.97;100477.25;5095450;28;1898;-36
2021/04/14 01:02:21;;;;;;;;;;;;;;;31.02;21.94;100468.91;5096868;28;787;-35
2021/04/14 01:04:46;;;;;;;;;;;;;;;31.07;21.96;100465.53;5096148;28;847;-34
2021/04/14 01:07:11;;;;;;;;;;;;;;;31.26;21.76;100474.66;5096714;28;760;-34
2021/04/14 01:09:37;;;;;;;;;;;;;;;31.21;21.99;100466.31;5096779;28;840;-36
2021/04/14 01:12:02;;;;;;;;;;;;;;;30.94;22.26;100463.72;5096209;28;843;-36
2021/04/14 01:14:27;;;;;;;;;;;;;;;30.92;22.11;100470.22;5085983;28;1114;-42
2021/04/14 01:16:53;;;;;;;;;;;;;;;31.22;21.99;100474.25;5076515;28;811;-42
2021/04/14 01:19:18;;;;;;;;;;;;;;;31.39;21.39;100471.03;5075907;28;796;-36
2021/04/14 01:21:43;;;;;;;;;;;;;;;30.99;22.04;100459.31;5076491;28;1977;-34
2021/04/14 01:24:09;;;;;;;;;;;;;;;30.93;22.10;100460.16;5076067;28;835;-35
2021/04/14 01:26:35;;;;;;;;;;;;;;;31.16;21.91;100472.41;5075652;28;873;-35
2021/04/14 01:29:00;;;;;;;;;;;;;;;31.43;21.68;100466.81;5075950;28;962;-35
2021/04/14 01:31:34;;;;;;;;;;;;;;;31.08;22.09;100461.78;5076439;28;788;-40
2021/04/14 01:34:01;;;;;;;;;;;;;;;31.03;22.12;100457.81;5075775;28;775;-34
2021/04/14 01:36:26;;;;;;;;;;;;;;;31.26;21.94;100453.72;5076346;28;834;-32
2021/04/14 01:38:51;;;;;;;;;;;;;;;31.36;21.78;100450.56;5082609;28;1694;-33
2021/04/14 01:41:17;;;;;;;;;;;;;;;31.10;21.96;100438.78;5095885;28;1972;-34
2021/04/14 01:43:42;;;;;;;;;;;;;;;31.13;22.16;100432.91;5093518;28;911;-34
2021/04/14 01:46:07;;;;;;;;;;;;;;;31.03;22.04;100441.53;5084011;28;1628;-34
2021/04/14 01:48:32;;;;;;;;;;;;;;;31.37;21.92;100441.34;5095978;28;793;-39
2021/04/14 01:50:58;;;;;;;;;;;;;;;31.23;22.12;100445.19;5096337;28;843;-40
2021/04/14 01:53:23;;;;;;;;;;;;;;;31.05;21.92;100438.59;5096443;28;810;-40
2021/04/14 01:55:49;;;;;;;;;;;;;;;30.99;22.08;100436.75;5095996;28;862;-35
2021/04/14 01:58:15;;;;;;;;;;;;;;;31.24;22.13;100436.81;5096611;28;795;-34
2021/04/14 02:00:42;;;;;;;;;;;;;;;31.38;21.69;100432.13;5094845;28;1906;-33
2021/04/14 02:03:08;;;;;;;;;;;;;;;31.11;21.91;100429.59;5095720;28;734;-33
2021/04/14 02:05:33;;;;;;;;;;;;;;;31.11;22.35;100420.59;5096107;28;842;-40
2021/04/14 02:07:58;;;;;;;;;;;;;;;31.08;22.37;100418.31;5078077;28;1297;-34
2021/04/14 02:10:25;;;;;;;;;;;;;;;31.33;22.01;100418.34;5095801;28;751;-34
2021/04/14 02:12:51;;;;;;;;;;;;;;;31.15;22.14;100417.22;5096423;28;868;-35
2021/04/14 02:15:18;;;;;;;;;;;;;;;31.17;22.07;100411.56;5079379;28;1276;-34
2021/04/14 02:17:43;;;;;;;;;;;;;;;31.16;22.06;100405.28;5075488;28;849;-34
2021/04/14 02:20:09;;;;;;;;;;;;;;;31.38;22.01;100410.38;5075723;28;1918;-33
2021/04/14 02:22:34;;;;;;;;;;;;;;;31.21;22.11;100406.53;5076005;28;760;-33
2021/04/14 02:25:00;;;;;;;;;;;;;;;31.04;22.32;100397.03;5075665;28;767;-33
2021/04/14 02:27:25;;;;;;;;;;;;;;;31.20;22.21;100394.00;5079127;28;847;-36
2021/04/14 02:29:50;;;;;;;;;;;;;;;31.47;21.84;100394.66;5078916;28;1093;-33
2021/04/14 02:32:16;;;;;;;;;;;;;;;31.25;22.22;100391.44;5078940;28;792;-34
2021/04/14 02:34:41;;;;;;;;;;;;;;;31.13;22.25;100394.88;5079364;28;847;-35
2021/04/14 02:37:06;;;;;;;;;;;;;;;31.21;22.40;100388.34;5079271;28;768;-34
2021/04/14 02:39:31;;;;;;;;;;;;;;;31.37;22.23;100389.69;5078833;28;1151;-32
2021/04/14 02:41:57;;;;;;;;;;;;;;;31.25;22.53;100391.44;5078858;28;1959;-34
2021/04/14 02:44:22;;;;;;;;;;;;;;;31.15;22.83;100390.06;5079041;28;986;-34
2021/04/14 02:46:47;;;;;;;;;;;;;;;31.10;22.65;100389.88;5078884;28;1585;-34
2021/04/14 02:49:13;;;;;;;;;;;;;;;31.43;22.56;100390.72;5095144;28;1064;-39
2021/04/14 02:51:38;;;;;;;;;;;;;;;31.24;22.87;100387.06;5098976;28;818;-34
2021/04/14 02:54:03;;;;;;;;;;;;;;;31.09;23.13;100384.66;5098573;28;992;-34
2021/04/14 02:56:29;;;;;;;;;;;;;;;31.08;22.93;100377.56;5099060;28;981;-34
2021/04/14 02:58:54;;;;;;;;;;;;;;;31.27;22.71;100379.31;5094568;28;950;-34
2021/04/14 03:01:19;;;;;;;;;;;;;;;31.35;22.56;100386.34;5078392;28;1961;-35
2021/04/14 03:03:45;;;;;;;;;;;;;;;31.07;22.81;100384.03;5060539;28;840;-39
2021/04/14 03:06:10;;;;;;;;;;;;;;;31.04;22.94;100377.19;5078418;28;847;-35
2021/04/14 03:08:35;;;;;;;;;;;;;;;31.25;22.90;100386.84;5078505;28;752;-34
2021/04/14 03:11:01;;;;;;;;;;;;;;;30.90;22.04;100373.69;5077955;28;845;-34
2021/04/14 03:13:26;;;;;;;;;;;;;;;30.41;21.81;100369.53;5078370;28;954;-33
2021/04/14 03:15:51;;;;;;;;;;;;;;;30.62;22.19;100370.28;5077671;28;1228;-40
2021/04/14 03:18:17;;;;;;;;;;;;;;;30.84;21.98;100371.88;5077781;28;839;-34
2021/04/14 03:20:42;;;;;;;;;;;;;;;31.15;21.87;100373.75;5078677;28;1977;-34
2021/04/14 03:23:08;;;;;;;;;;;;;;;31.06;21.82;100369.66;5078207;28;745;-33
2021/04/14 03:25:34;;;;;;;;;;;;;;;30.89;22.08;100369.34;5077922;28;776;-42
2021/04/14 03:28:02;;;;;;;;;;;;;;;30.94;22.10;100374.09;5078347;28;745;-33
2021/04/14 03:30:27;;;;;;;;;;;;;;;30.76;21.33;100381.06;5077891;28;1006;-34
2021/04/14 03:32:53;;;;;;;;;;;;;;;30.46;21.99;100381.63;5077856;28;736;-38
2021/04/14 03:35:18;;;;;;;;;;;;;;;29.40;22.31;100384.03;5078025;28;744;-33
2021/04/14 03:37:44;;;;;;;;;;;;;;;29.18;22.73;100388.78;5077232;28;744;-33
2021/04/14 03:40:09;;;;;;;;;;;;;;;29.25;22.94;100388.81;5077687;28;1902;-35
2021/04/14 03:42:35;;;;;;;;;;;;;;;28.03;25.10;100385.59;5078258;28;780;-37
2021/04/14 03:45:02;;;;;;;;;;;;;;;27.39;26.01;100376.34;5078352;28;995;-44
2021/04/14 03:47:27;;;;;;;;;;;;;;;26.84;26.98;100376.78;5096169;28;1526;-37
2021/04/14 03:49:52;;;;;;;;;;;;;;;26.42;27.45;100368.44;5097981;28;886;-43
2021/04/14 03:52:18;;;;;;;;;;;;;;;26.30;27.88;100373.41;5098532;28;755;-46
2021/04/14 03:54:43;;;;;;;;;;;;;;;25.82;29.06;100373.75;5097392;28;847;-39
2021/04/14 03:57:09;;;;;;;;;;;;;;;26.32;27.43;100367.84;5097839;28;883;-34
2021/04/14 03:59:34;;;;;;;;;;;;;;;26.35;27.18;100368.34;5096921;28;1014;-33
2021/04/14 04:01:59;;;;;;;;;;;;;;;26.74;26.77;100370.88;5097901;28;1969;-44
2021/04/14 04:04:25;;;;;;;;;;;;;;;26.39;27.47;100375.00;5097510;28;817;-40
2021/04/14 04:06:50;;;;;;;;;;;;;;;25.56;29.06;100373.09;5098169;28;830;-35
2021/04/14 04:09:15;;;;;;;;;;;;;;;25.17;29.96;100374.94;5097337;28;880;-34
2021/04/14 04:11:41;;;;;;;;;;;;;;;24.98;30.30;100381.59;5097390;28;800;-32
2021/04/14 04:14:06;;;;;;;;;;;;;;;24.84;30.63;100384.00;5091591;28;1096;-33
2021/04/14 04:16:31;;;;;;;;;;;;;;;25.33;29.68;100373.13;5077190;28;751;-34
2021/04/14 04:18:57;;;;;;;;;;;;;;;25.62;28.91;100380.50;5076936;28;922;-33
2021/04/14 04:21:22;;;;;;;;;;;;;;;25.40;28.29;100377.63;5077326;28;1905;-40
2021/04/14 04:23:47;;;;;;;;;;;;;;;25.23;28.26;100381.44;5077017;28;797;-46
2021/04/14 04:26:13;;;;;;;;;;;;;;;25.15;28.41;100385.03;5077476;28;810;-45
2021/04/14 04:28:38;;;;;;;;;;;;;;;25.04;28.66;100384.44;5076478;28;1025;-34
2021/04/14 04:31:03;;;;;;;;;;;;;;;25.39;28.72;100383.19;5076486;28;898;-33
2021/04/14 04:33:29;;;;;;;;;;;;;;;25.56;28.51;100387.44;5077024;28;863;-35
2021/04/14 04:35:54;;;;;;;;;;;;;;;25.66;28.21;100384.50;5076971;28;900;-48
2021/04/14 04:38:19;;;;;;;;;;;;;;;25.65;28.15;100388.22;5078692;28;1205;-31
2021/04/14 04:40:45;;;;;;;;;;;;;;;25.62;28.25;100385.88;5097034;28;1907;-40
2021/04/14 04:43:10;;;;;;;;;;;;;;;25.71;28.17;100388.53;5096825;28;856;-33
2021/04/14 04:45:36;;;;;;;;;;;;;;;25.72;28.12;100384.81;5076164;28;1202;-30
2021/04/14 04:48:01;;;;;;;;;;;;;;;26.27;27.28;100384.59;5075604;28;796;-31
2021/04/14 04:50:27;;;;;;;;;;;;;;;26.62;26.69;100389.41;5076593;28;970;-34
2021/04/14 04:53:04;;;;;;;;;;;;;;;26.85;26.22;100388.44;5074662;28;918;-30
2021/04/14 04:55:29;;;;;;;;;;;;;;;26.40;26.91;100389.34;5076551;28;877;-33
2021/04/14 04:57:55;;;;;;;;;;;;;;;26.16;27.29;100394.81;5076540;28;772;-39
2021/04/14 05:00:20;;;;;;;;;;;;;;;26.09;27.50;100388.47;5075880;28;1895;-50
2021/04/14 05:02:46;;;;;;;;;;;;;;;26.06;27.66;100399.63;5076344;28;858;-45
2021/04/14 05:05:12;;;;;;;;;;;;;;;26.00;27.81;100397.66;5074315;28;1181;-35
2021/04/14 05:07:37;;;;;;;;;;;;;;;26.00;27.81;100398.50;5074853;28;748;-33
2021/04/14 05:10:03;;;;;;;;;;;;;;;26.00;27.66;100384.19;5076560;28;767;-41
2021/04/14 05:12:28;;;;;;;;;;;;;;;25.95;27.82;100390.13;5076404;28;736;-46
2021/04/14 05:14:54;;;;;;;;;;;;;;;25.95;27.80;100382.06;5075395;28;1050;-31
2021/04/14 05:17:19;;;;;;;;;;;;;;;25.95;27.82;100375.81;5075768;28;879;-34
2021/04/14 05:19:44;;;;;;;;;;;;;;;25.98;27.69;100370.06;5076216;28;803;-30
2021/04/14 05:22:10;;;;;;;;;;;;;;;25.94;27.84;100372.31;5075978;28;1898;-29
2021/04/14 05:24:35;;;;;;;;;;;;;;;25.89;27.96;100370.13;5074121;28;869;-31
2021/04/14 05:27:00;;;;;;;;;;;;;;;25.86;27.93;100359.72;5076491;28;743;-34
2021/04/14 05:29:25;;;;;;;;;;;;;;;25.77;28.03;100352.75;5075875;28;1020;-32
2021/04/14 05:31:51;;;;;;;;;;;;;;;25.83;27.97;100354.72;5075900;28;779;-33
2021/04/14 05:34:16;;;;;;;;;;;;;;;25.83;27.56;100357.41;5075777;28;830;-29
2021/04/14 05:36:41;;;;;;;;;;;;;;;25.77;27.95;100342.84;5076144;28;756;-34
2021/04/14 05:39:07;;;;;;;;;;;;;;;25.94;27.77;100348.06;5084712;28;1084;-42
2021/04/14 05:41:32;;;;;;;;;;;;;;;26.06;27.42;100355.69;5096160;28;1902;-48
2021/04/14 05:43:57;;;;;;;;;;;;;;;26.03;27.82;100352.31;5090785;28;946;-44
2021/04/14 05:46:23;;;;;;;;;;;;;;;26.03;27.46;100351.47;5085885;28;1594;-43
2021/04/14 05:48:48;;;;;;;;;;;;;;;25.99;27.71;100356.41;5076083;28;856;-32
2021/04/14 05:51:17;;;;;;;;;;;;;;;25.95;27.64;100359.66;5076140;28;775;-34
2021/04/14 05:53:43;;;;;;;;;;;;;;;25.96;27.69;100372.13;5075650;28;852;-47
2021/04/14 05:56:08;;;;;;;;;;;;;;;25.92;27.61;100366.25;5075878;28;815;-44
2021/04/14 05:58:34;;;;;;;;;;;;;;;25.97;27.69;100371.94;5075981;28;1013;-34
2021/04/14 06:00:59;;;;;;;;;;;;;;;25.94;27.79;100379.53;5076953;28;1898;-32
2021/04/14 06:03:26;;;;;;;;;;;;;;;26.01;27.76;100384.00;5079008;28;1038;-41
2021/04/14 06:05:57;;;;;;;;;;;;;;;25.97;27.99;100380.03;5079930;28;795;-33
2021/04/14 06:08:23;;;;;;;;;;;;;;;25.97;27.72;100376.47;5079576;28;795;-37
2021/04/14 06:10:48;;;;;;;;;;;;;;;25.76;28.37;100381.56;5079885;28;865;-45
2021/04/14 06:13:14;;;;;;;;;;;;;;;25.66;29.04;100383.66;5079690;28;834;-44
2021/04/14 06:15:39;;;;;;;;;;;;;;;25.74;29.05;100382.78;5078419;28;1051;-31
2021/04/14 06:18:05;;;;;;;;;;;;;;;25.66;29.19;100370.19;5079939;28;870;-48
2021/04/14 06:20:31;;;;;;;;;;;;;;;25.69;28.88;100369.84;5080055;28;1894;-49
2021/04/14 06:22:58;;;;;;;;;;;;;;;25.85;28.48;100374.25;5078941;28;789;-32
2021/04/14 06:25:24;;;;;;;;;;;;;;;25.87;28.35;100366.81;5078854;28;775;-35
2021/04/14 06:28:00;;;;;;;;;;;;;;;25.94;28.34;100364.22;5079693;28;951;-31
2021/04/14 06:30:25;;;;;;;;;;;;;;;25.99;28.43;100366.34;5078333;28;966;-43
2021/04/14 06:32:51;;;;;;;;;;;;;;;25.95;28.42;100357.81;5079376;28;859;-40
2021/04/14 06:35:16;;;;;;;;;;;;;;;26.08;28.44;100359.00;5079449;28;814;-46
2021/04/14 06:37:42;;;;;;;;;;;;;;;26.00;28.38;100358.09;5078617;28;820;-47
2021/04/14 06:42:54;;;;;;;;;;;;;;;26.01;28.28;100367.00;5081577;28;630;-31
2021/04/14 06:45:21;;;;;;;;;;;;;;;25.95;28.31;100360.50;5083183;28;1407;-35
2021/04/14 06:47:55;;;;;;;;;;;;;;;26.11;28.27;100367.56;5099674;28;767;-34
2021/04/14 06:50:23;;;;;;;;;;;;;;;25.97;28.24;100369.25;5099419;28;755;-48
2021/04/14 06:53:01;;;;;;;;;;;;;;;25.79;28.61;100367.72;5099086;28;776;-33
2021/04/14 06:55:38;;;;;;;;;;;;;;;25.95;28.43;100373.97;5099312;28;811;-32
2021/04/14 06:58:04;;;;;;;;;;;;;;;25.85;28.57;100382.31;5099196;28;820;-37
2021/04/14 07:00:31;;;;;;;;;;;;;;;25.85;28.52;100389.56;5079701;28;1898;-49
2021/04/14 07:03:09;;;;;;;;;;;;;;;26.01;28.24;100383.16;5081009;28;817;-44
2021/04/14 07:05:36;;;;;;;;;;;;;;;26.00;28.18;100382.34;5099037;28;786;-32
2021/04/14 07:08:02;;;;;;;;;;;;;;;26.14;27.95;100377.97;5080704;28;1009;-45
2021/04/14 07:10:28;;;;;;;;;;;;;;;26.16;28.21;100372.38;5099352;28;776;-32
2021/04/14 07:12:54;;;;;;;;;;;;;;;26.16;28.23;100364.28;5097461;28;839;-42
2021/04/14 07:15:19;;;;;;;;;;;;;;;26.14;28.14;100361.78;5079564;28;1200;-33
2021/04/14 07:17:57;;;;;;;;;;;;;;;25.90;28.27;100373.69;5098666;28;819;-32
2021/04/14 07:20:27;;;;;;;;;;;;;;;26.10;28.26;100373.13;5099016;28;1919;-43
2021/04/14 07:23:00;;;;;;;;;;;;;;;26.26;28.04;100380.19;5080933;28;798;-25
2021/04/14 07:25:26;;;;;;;;;;;;;;;26.23;28.12;100384.13;5099020;28;834;-24
2021/04/14 07:28:09;;;;;;;;;;;;;;;26.34;27.75;100387.41;5098858;28;882;-23
2021/04/14 07:30:35;;;;;;;;;;;;;;;26.36;27.69;100379.97;5080326;28;1014;-23
2021/04/14 07:33:13;;;;;;;;;;;;;;;26.40;27.74;100383.94;5078345;28;840;-23
2021/04/14 07:35:48;;;;;;;;;;;;;;;26.32;27.88;100387.56;5077295;28;826;-25
2021/04/14 07:38:36;;;;;;;;;;;;;;;26.23;28.09;100383.25;5079746;28;1131;-23
2021/04/14 07:41:05;;;;;;;;;;;;;;;26.19;28.12;100385.53;5092667;28;1906;-22
2021/04/14 07:43:33;;;;;;;;;;;;;;;26.34;28.09;100385.53;5078953;28;950;-22
2021/04/14 07:45:58;;;;;;;;;;;;;;;26.38;27.96;100386.84;5084474;28;1428;-22
2021/04/14 07:48:28;;;;;;;;;;;;;;;26.39;27.77;100388.50;5098486;28;804;-24
2021/04/14 07:50:59;;;;;;;;;;;;;;;26.40;27.68;100387.50;5079331;28;847;-22
2021/04/14 07:53:24;;;;;;;;;;;;;;;26.46;27.62;100393.97;5098097;28;799;-22
2021/04/14 07:56:20;;;;;;;;;;;;;;;26.39;27.84;100401.97;5098075;28;797;-22
2021/04/14 07:58:46;;;;;;;;;;;;;;;26.42;27.98;100398.09;5079890;28;1324;-24
2021/04/14 08:01:14;;;;;;;;;;;;;;;26.46;28.03;100399.38;5080045;28;1905;-23
2021/04/14 08:03:40;;;;;;;;;;;;;;;26.27;28.10;100404.31;5097831;28;511;-24
2021/04/14 08:06:08;;;;;;;;;;;;;;;26.19;28.10;100398.16;5097648;28;783;-23
2021/04/14 08:08:33;;;;;;;;;;;;;;;26.22;28.33;100384.31;5098043;28;768;-24
2021/04/14 08:11:05;;;;;;;;;;;;;;;26.13;28.48;100389.78;5098307;28;752;-24
2021/04/14 08:13:32;;;;;;;;;;;;;;;26.23;28.12;100384.13;5096161;28;982;-24
2021/04/14 08:15:57;;;;;;;;;;;;;;;26.19;28.06;100390.91;5075861;28;1253;-24
2021/04/14 08:18:28;;;;;;;;;;;;;;;26.24;28.05;100382.25;5076347;28;740;-24
2021/04/14 08:21:22;;;;;;;;;;;;;;;26.28;28.07;100387.09;5077393;28;1981;-24
2021/04/14 08:23:54;;;;;;;;;;;;;;;26.22;28.22;100378.91;5039661;28;1315;-24
2021/04/14 08:26:20;;;;;;;;;;;;;;;26.13;28.33;100380.84;5077088;28;753;-24
2021/04/14 08:28:46;;;;;;;;;;;;;;;26.26;27.91;100375.66;5076534;28;1029;-24
2021/04/14 08:31:12;;;;;;;;;;;;;;;26.14;28.24;100375.28;5077044;28;820;-24
2021/04/14 08:33:37;;;;;;;;;;;;;;;26.26;28.03;100374.81;5077111;28;811;-25
2021/04/14 08:36:25;;;;;;;;;;;;;;;26.18;28.40;100373.03;5076711;28;1548;-24
2021/04/14 08:38:51;;;;;;;;;;;;;;;26.25;28.26;100373.97;5077992;28;1401;-25
2021/04/14 08:41:20;;;;;;;;;;;;;;;26.28;27.92;100368.22;5096923;28;1909;-24
2021/04/14 08:43:48;;;;;;;;;;;;;;;26.27;28.25;100384.59;5093694;28;930;-25
2021/04/14 08:46:14;;;;;;;;;;;;;;;26.19;28.30;100398.16;5085507;28;1594;-23
2021/04/14 08:48:40;;;;;;;;;;;;;;;26.29;28.07;100433.78;5097329;28;748;-25
2021/04/14 08:51:06;;;;;;;;;;;;;;;26.22;28.13;100443.63;5075065;28;887;-22
2021/04/14 08:53:32;;;;;;;;;;;;;;;26.08;28.50;100442.56;5076907;28;782;-24
2021/04/14 08:55:58;;;;;;;;;;;;;;;26.02;28.61;100420.75;5076928;28;724;-21
2021/04/14 08:58:23;;;;;;;;;;;;;;;25.97;28.54;100433.06;5076644;28;776;-23
2021/04/14 09:00:49;;;;;;;;;;;;;;;25.68;28.99;100430.13;5077188;28;1905;-22
2021/04/14 09:03:15;;;;;;;;;;;;;;;25.57;29.19;100423.28;5076822;28;768;-22
2021/04/14 09:05:44;;;;;;;;;;;;;;;25.52;29.25;100421.13;5076529;28;844;-22
2021/04/14 09:08:10;;;;;;;;;;;;;;;25.59;29.37;100417.72;5075789;28;779;-21
2021/04/14 09:10:38;;;;;;;;;;;;;;;25.66;29.20;100421.38;5077147;28;775;-21
2021/04/14 09:13:04;;;;;;;;;;;;;;;25.66;29.23;100421.38;5076345;28;795;-21
2021/04/14 09:15:29;;;;;;;;;;;;;;;25.50;29.44;100420.47;5087257;28;1334;-21
2021/04/14 09:17:57;;;;;;;;;;;;;;;25.60;29.28;100422.06;5076454;28;824;-21
2021/04/14 09:20:24;;;;;;;;;;;;;;;25.46;29.50;100424.53;5076326;28;1913;-22
2021/04/14 09:23:03;;;;;;;;;;;;;;;25.51;29.28;100421.28;5058795;28;760;-21
2021/04/14 09:25:32;;;;;;;;;;;;;;;25.56;29.51;100410.81;5076752;28;767;-22
2021/04/14 09:27:58;;;;;;;;;;;;;;;25.49;29.46;100413.41;5058253;28;775;-22
2021/04/14 09:30:26;;;;;;;;;;;;;;;25.57;29.28;100420.59;5076184;28;970;-23
2021/04/14 09:32:53;;;;;;;;;;;;;;;25.46;29.48;100421.03;5076677;28;779;-20
2021/04/14 09:35:22;;;;;;;;;;;;;;;25.47;29.59;100425.38;5076600;28;850;-22
2021/04/14 09:37:48;;;;;;;;;;;;;;;25.58;29.21;100437.56;5080895;28;791;-21
2021/04/14 09:40:13;;;;;;;;;;;;;;;25.62;29.25;100437.06;5098685;28;1902;-23
2021/04/14 09:42:42;;;;;;;;;;;;;;;25.51;29.36;100459.00;5100559;28;764;-22
2021/04/14 09:45:13;;;;;;;;;;;;;;;25.49;29.42;100463.75;5078012;28;912;-22
2021/04/14 09:47:39;;;;;;;;;;;;;;;25.53;29.30;100448.88;5079848;28;1541;-23
2021/04/14 09:50:13;;;;;;;;;;;;;;;24.95;30.10;100450.09;5080388;28;809;-23
2021/04/14 09:52:52;;;;;;;;;;;;;;;25.76;28.92;100457.00;5080520;28;843;-23
2021/04/14 09:55:18;;;;;;;;;;;;;;;25.98;28.31;100448.22;5080046;28;862;-23
2021/04/14 09:57:44;;;;;;;;;;;;;;;25.53;29.18;100443.50;5080107;28;830;-24
2021/04/14 10:00:28;;;;;;;;;;;;;;;25.27;29.69;100450.09;5080079;28;1977;-24
2021/04/14 10:02:57;;;;;;;;;;;;;;;25.58;29.10;100454.56;5079832;28;878;-21
2021/04/14 10:05:25;;;;;;;;;;;;;;;25.90;28.67;100451.84;5079540;28;1427;-40
2021/04/14 10:07:50;;;;;;;;;;;;;;;26.16;28.05;100464.03;5078819;28;1488;-21
2021/04/14 10:10:17;;;;;;;;;;;;;;;25.98;28.32;100467.06;5080019;28;752;-21
2021/04/14 10:12:42;;;;;;;;;;;;;;;25.86;28.65;100467.53;5079834;28;850;-22
2021/04/14 10:15:08;;;;;;;;;;;;;;;25.82;28.76;100466.22;5079003;28;1185;-23
2021/04/14 10:17:33;;;;;;;;;;;;;;;26.20;28.18;100459.97;5079853;28;781;-24
2021/04/14 10:20:18;;;;;;;;;;;;;;;26.01;28.43;100451.38;5079235;28;807;-23
2021/04/14 10:22:46;;;;;;;;;;;;;;;25.59;29.17;100450.84;5079435;28;866;-24
2021/04/14 10:25:17;;;;;;;;;;;;;;;26.11;28.33;100453.00;5079613;28;770;-24
2021/04/14 10:27:43;;;;;;;;;;;;;;;26.36;28.02;100456.28;5079518;28;851;-23
2021/04/14 10:30:09;;;;;;;;;;;;;;;26.15;28.18;100448.91;5078001;28;966;-25
2021/04/14 10:32:34;;;;;;;;;;;;;;;25.94;28.60;100434.28;5078462;28;749;-24
2021/04/14 10:35:09;;;;;;;;;;;;;;;25.88;28.69;100443.94;5079208;28;879;-24
2021/04/14 10:37:39;;;;;;;;;;;;;;;25.83;28.84;100450.88;5079392;28;823;-24
2021/04/14 10:40:09;;;;;;;;;;;;;;;25.80;28.90;100454.78;5096429;28;1140;-23
2021/04/14 10:42:34;;;;;;;;;;;;;;;25.75;28.84;100449.09;5099097;28;836;-24
2021/04/14 10:45:06;;;;;;;;;;;;;;;25.71;28.92;100448.59;5085766;28;990;-24
2021/04/14 10:47:33;;;;;;;;;;;;;;;25.60;29.12;100444.47;5098615;28;1558;-23
2021/04/14 10:50:21;;;;;;;;;;;;;;;25.64;29.12;100455.75;5099212;28;791;-23
2021/04/14 10:52:49;;;;;;;;;;;;;;;25.52;29.37;100461.53;5088846;28;1553;-23
2021/04/14 10:55:15;;;;;;;;;;;;;;;25.44;29.44;100462.41;5081543;28;820;-23
2021/04/14 10:57:41;;;;;;;;;;;;;;;25.50;29.38;100468.94;5081332;28;791;-24
2021/04/14 11:00:08;;;;;;;;;;;;;;;25.52;29.41;100468.75;5079084;28;955;-24
2021/04/14 11:02:34;;;;;;;;;;;;;;;25.50;29.42;100458.19;5080921;28;1942;-23
2021/04/14 11:05:00;;;;;;;;;;;;;;;25.49;29.35;100456.47;5080936;28;771;-22
2021/04/14 11:07:25;;;;;;;;;;;;;;;25.61;29.22;100437.25;5081557;28;806;-23
2021/04/14 11:09:52;;;;;;;;;;;;;;;25.50;29.28;100433.94;5099255;28;727;-23
2021/04/14 11:12:21;;;;;;;;;;;;;;;25.64;29.18;100442.28;5080581;28;804;-23
2021/04/14 11:14:50;;;;;;;;;;;;;;;25.65;29.25;100425.09;5071203;28;1258;-43
2021/04/14 11:17:17;;;;;;;;;;;;;;;25.55;29.24;100418.09;5059113;28;772;-22
2021/04/14 11:19:51;;;;;;;;;;;;;;;25.52;29.33;100421.13;5073384;28;883;-22
2021/04/14 11:22:16;;;;;;;;;;;;;;;25.52;29.42;100422.97;5058513;28;1989;-23
2021/04/14 11:24:51;;;;;;;;;;;;;;;25.56;29.22;100411.66;5058692;28;813;-22
2021/04/14 11:27:19;;;;;;;;;;;;;;;25.62;29.31;100425.44;5058418;28;947;-23
2021/04/14 11:29:45;;;;;;;;;;;;;;;25.55;29.46;100411.84;5057400;28;982;-22
2021/04/14 11:32:14;;;;;;;;;;;;;;;25.59;29.34;100423.09;5057971;28;843;-22
2021/04/14 11:34:39;;;;;;;;;;;;;;;26.15;28.23;100414.69;5058378;28;757;-22
2021/04/14 11:37:25;;;;;;;;;;;;;;;26.15;28.37;100424.63;5074181;28;750;-23
2021/04/14 11:39:51;;;;;;;;;;;;;;;25.50;28.84;100415.09;5035795;28;2033;-22
2021/04/14 11:42:17;;;;;;;;;;;;;;;25.22;29.28;100407.53;5038252;28;1965;-23
2021/04/14 11:44:59;;;;;;;;;;;;;;;25.14;29.43;100405.72;5038733;28;1003;-23
2021/04/14 11:47:25;;;;;;;;;;;;;;;25.56;29.26;100400.03;5055786;28;1665;-22
2021/04/14 11:49:51;;;;;;;;;;;;;;;25.68;29.08;100392.41;5058611;28;823;-23
2021/04/14 11:52:16;;;;;;;;;;;;;;;25.88;28.64;100394.56;5056647;28;820;-22
2021/04/14 11:54:41;;;;;;;;;;;;;;;25.89;28.73;100388.19;5057253;28;840;-22
2021/04/14 11:57:16;;;;;;;;;;;;;;;25.87;28.77;100390.22;5058087;28;851;-21
2021/04/14 11:59:43;;;;;;;;;;;;;;;25.86;28.80;100380.47;5056288;28;991;-22
2021/04/14 12:02:12;;;;;;;;;;;;;;;25.94;28.57;100371.47;5073043;28;1971;-22
2021/04/14 12:04:37;;;;;;;;;;;;;;;26.03;28.51;100368.50;5057884;28;839;-22
2021/04/14 12:07:02;;;;;;;;;;;;;;;26.01;28.54;100367.00;5057774;28;827;-22
2021/04/14 12:09:28;;;;;;;;;;;;;;;26.00;28.55;100363.47;5057480;28;823;-23
2021/04/14 12:11:57;;;;;;;;;;;;;;;26.10;28.21;100359.66;5057527;28;823;-22
2021/04/14 12:14:22;;;;;;;;;;;;;;;26.12;28.54;100355.78;5061270;28;1042;-22
2021/04/14 12:16:47;;;;;;;;;;;;;;;26.15;28.32;100349.16;5097783;28;851;-23
2021/04/14 12:19:12;;;;;;;;;;;;;;;26.17;28.12;100364.13;5097927;28;755;-23
2021/04/14 12:21:38;;;;;;;;;;;;;;;26.17;28.19;100360.59;5097638;28;1983;-23
2021/04/14 12:24:03;;;;;;;;;;;;;;;26.08;28.45;100359.00;5097512;28;889;-23
2021/04/14 12:26:28;;;;;;;;;;;;;;;26.13;28.34;100365.53;5097849;28;781;-23
2021/04/14 12:28:54;;;;;;;;;;;;;;;26.16;28.43;100373.22;5092646;28;962;-23
2021/04/14 12:31:19;;;;;;;;;;;;;;;26.14;28.35;100375.28;5077305;28;816;-22
2021/04/14 12:33:44;;;;;;;;;;;;;;;26.08;28.40;100365.25;5077382;28;783;-23
2021/04/14 12:36:10;;;;;;;;;;;;;;;25.96;28.74;100370.25;5077066;28;806;-23
2021/04/14 12:38:35;;;;;;;;;;;;;;;25.54;28.76;100372.47;5081883;28;1158;-23
2021/04/14 12:41:01;;;;;;;;;;;;;;;25.22;29.25;100382.47;5097399;28;1934;-22
2021/04/14 12:43:26;;;;;;;;;;;;;;;25.02;29.57;100375.72;5096971;28;997;-23
2021/04/14 12:45:52;;;;;;;;;;;;;;;25.12;29.61;100371.94;5082093;28;1333;-23
2021/04/14 12:48:18;;;;;;;;;;;;;;;25.63;29.11;100375.94;5096720;28;843;-22
2021/04/14 12:50:44;;;;;;;;;;;;;;;25.79;28.89;100370.41;5097190;28;867;-23
2021/04/14 12:53:10;;;;;;;;;;;;;;;25.92;28.62;100364.38;5060239;28;855;-22
2021/04/14 12:55:39;;;;;;;;;;;;;;;25.91;28.58;100354.63;5058906;28;744;-22